Terminal Aerodrome Forecast
Issued by NWS

Current Version | Previous Version | Text Only | Print | Product List | Glossary On
Versions: 1 2 3 4 5 6 7 8 9 10 11 12 13 14
476
FTUS44 KTSA 210537
TAFFYV
TAF
KFYV 210537Z 2106/2206 18012KT P6SM SCT025
     FM210900 18014G20KT P6SM BKN015
     FM211900 19016G25KT P6SM BKN028 PROB30 2120/2124 -TSRA BKN018CB
     FM220000 20015G24KT P6SM VCTS BKN022CB BKN035
     FM220500 21014KT P6SM SCT120=

USA.gov is the U.S. government's official web portal to all federal, state and local government web resources and services.